Main page
METAR-TAF:

METAR-TAF

Airports :

Lisbon, Portugal

Lisbon Airport

latitude: 38-46N, longitude: 009-08W, elevation: 114 m

Current weather observation

The report was made 35 minutes ago, at 05:30 UTC
Wind 3 kt from the East/Northeast
Temperature 15°C
Humidity 63%
Pressure 1021 hPa
Visibility 10 km or more
no clouds below 1500 m and no cumulonimbus

METAR: LPPT 240530Z 06003KT CAVOK 15/08 Q1021

Time: 07:05 (06:05 UTC)

Forecast

The report was made 1 hour and 5 minutes ago, at 05:00 UTC
Forecast valid from 24 at 06 UTC to 25 at 12 UTC
Wind 7 kt from the East/Northeast
Visibility 10 km or more
no clouds below 1500 m and no cumulonimbus
Becoming
from 24 at 12 UTC to 24 at 15 UTC
Wind 7 kt from the Southeast
Becoming
from 24 at 17 UTC to 24 at 20 UTC
Wind 7 kt from the North
Becoming
from 25 at 03 UTC to 25 at 06 UTC
Wind 5 kt from the Northeast

TAF: LPPT 240500Z 2406/2512 06007KT CAVOK BECMG 2412/2415 13007KT BECMG 2417/2420 35007KT BECMG 2503/2506 05005KT

Weather observations and forecasts of more than 4000 airports (METAR and TAF reports).

The available stations are represented by yellow and red dots on the map.

Hover mouse over dot to see the name of the station.

Then click to see weather observations and forecasts.

To change the map : click on the green buttons with a black cross to zoom in, on the green button with a dash to zoom out, or on the green arrows for adjacent maps.


METAR-TAF: